createdAt,value
2022-10-24T00:00:00.363Z,15.32
2022-10-24T00:02:26.946Z,15.12
2022-10-24T00:04:53.441Z,15.12
2022-10-24T00:07:20.461Z,15.20
2022-10-24T00:09:47.027Z,15.39
2022-10-24T00:12:13.646Z,15.34
2022-10-24T00:14:40.242Z,15.49
2022-10-24T00:17:06.733Z,15.36
2022-10-24T00:19:34.135Z,15.34
2022-10-24T00:22:00.703Z,15.40
2022-10-24T00:24:27.402Z,15.26
2022-10-24T00:26:54.246Z,15.23
2022-10-24T00:29:20.784Z,15.36
2022-10-24T00:31:47.290Z,15.32
2022-10-24T00:34:13.992Z,15.34
2022-10-24T00:36:40.557Z,15.18
2022-10-24T00:39:07.063Z,15.12
2022-10-24T00:41:37.226Z,15.04
2022-10-24T00:44:33.897Z,14.95
2022-10-24T00:47:16.558Z,15.00
2022-10-24T00:49:56.212Z,15.00
2022-10-24T00:52:26.446Z,15.03
2022-10-24T00:54:53.908Z,15.08
2022-10-24T00:57:39.473Z,15.34
2022-10-24T01:00:10.996Z,15.31
2022-10-24T01:02:38.216Z,15.25
2022-10-24T01:05:05.727Z,15.01
2022-10-24T01:07:51.127Z,15.12
2022-10-24T01:10:42.390Z,15.27
2022-10-24T01:13:22.831Z,15.47
2022-10-24T01:16:12.255Z,15.57
2022-10-24T01:18:44.954Z,15.24
2022-10-24T01:21:29.417Z,15.04
2022-10-24T01:24:04.915Z,15.24
2022-10-24T01:26:59.202Z,15.44
2022-10-24T01:30:04.823Z,15.54
2022-10-24T01:32:46.412Z,15.38
2022-10-24T01:35:15.791Z,15.34
2022-10-24T01:37:58.328Z,15.43
2022-10-24T01:40:29.510Z,15.38
2022-10-24T01:42:59.682Z,15.26
2022-10-24T01:45:31.408Z,15.36
2022-10-24T01:48:00.320Z,15.49
2022-10-24T01:50:27.738Z,15.42
2022-10-24T01:52:55.914Z,15.48
2022-10-24T01:55:22.901Z,15.54
2022-10-24T01:57:49.383Z,15.46
2022-10-24T02:00:18.980Z,15.33
2022-10-24T02:02:50.685Z,15.08
2022-10-24T02:05:23.112Z,15.06
2022-10-24T02:07:53.696Z,15.08
2022-10-24T02:10:27.708Z,15.23
2022-10-24T02:12:59.461Z,15.16
2022-10-24T02:15:34.872Z,15.34
2022-10-24T02:18:01.628Z,15.46
2022-10-24T02:20:38.235Z,15.41
2022-10-24T02:23:13.658Z,15.33
2022-10-24T02:28:21.797Z,15.39
2022-10-24T02:31:12.791Z,15.34
2022-10-24T02:33:41.022Z,15.45
2022-10-24T02:36:09.201Z,15.32
2022-10-24T02:38:41.477Z,15.19
2022-10-24T02:41:11.944Z,15.01
2022-10-24T02:43:39.776Z,14.94
2022-10-24T02:46:07.049Z,15.06
2022-10-24T02:48:36.880Z,14.82
2022-10-24T02:51:03.781Z,14.74
2022-10-24T02:53:30.253Z,14.98
2022-10-24T02:55:56.841Z,14.94
2022-10-24T02:58:23.328Z,14.87
2022-10-24T03:00:49.883Z,15.01
2022-10-24T03:03:16.393Z,14.94
2022-10-24T03:05:43.120Z,14.85
2022-10-24T03:08:09.633Z,14.94
2022-10-24T03:10:36.163Z,14.77
2022-10-24T03:13:02.657Z,14.73
2022-10-24T03:15:29.859Z,14.52
2022-10-24T03:17:56.345Z,14.57
2022-10-24T03:20:22.841Z,14.71
2022-10-24T03:22:49.290Z,14.91
2022-10-24T03:25:15.966Z,14.97
2022-10-24T03:27:42.973Z,15.04
2022-10-24T03:30:10.128Z,15.13
2022-10-24T03:32:36.644Z,15.14
2022-10-24T03:35:04.006Z,15.25
2022-10-24T03:37:31.022Z,15.34
2022-10-24T03:39:57.914Z,15.43
2022-10-24T03:42:24.381Z,15.43
2022-10-24T03:44:51.007Z,15.51
2022-10-24T03:47:17.534Z,15.44
2022-10-24T03:49:44.010Z,15.26
2022-10-24T03:52:10.904Z,15.25
2022-10-24T03:54:37.680Z,15.04
2022-10-24T03:57:04.860Z,14.98
2022-10-24T03:59:31.792Z,15.14
2022-10-24T04:01:58.508Z,15.14
2022-10-24T04:04:25.189Z,15.06
2022-10-24T04:06:51.808Z,15.00
2022-10-24T04:09:18.543Z,15.04
2022-10-24T04:11:45.277Z,15.08
2022-10-24T04:14:31.909Z,14.89
2022-10-24T04:16:58.490Z,14.95
2022-10-24T04:19:25.236Z,15.02
2022-10-24T04:21:51.781Z,14.91
2022-10-24T04:24:18.405Z,14.73
2022-10-24T04:26:45.062Z,14.59
2022-10-24T04:29:11.673Z,14.50
2022-10-24T04:31:38.214Z,14.39
2022-10-24T04:34:04.730Z,14.29
2022-10-24T04:36:31.863Z,14.24
2022-10-24T04:38:58.331Z,14.35
2022-10-24T04:41:25.126Z,14.52
2022-10-24T04:43:52.604Z,14.78
2022-10-24T04:46:19.272Z,14.94
2022-10-24T04:48:46.043Z,15.03
2022-10-24T04:51:12.646Z,14.96
2022-10-24T04:53:39.074Z,14.96
2022-10-24T04:56:06.348Z,15.12
2022-10-24T04:58:32.794Z,15.31
2022-10-24T05:00:59.492Z,15.39
2022-10-24T05:03:26.226Z,15.40
2022-10-24T05:05:52.681Z,15.36
2022-10-24T05:08:19.163Z,15.33
2022-10-24T05:10:45.874Z,15.13
2022-10-24T05:13:12.833Z,15.23
2022-10-24T05:15:39.689Z,15.19
2022-10-24T05:18:06.181Z,15.26
2022-10-24T05:20:32.832Z,15.29
2022-10-24T05:22:59.338Z,15.32
2022-10-24T05:25:25.788Z,15.41
2022-10-24T05:27:52.277Z,15.48
2022-10-24T05:30:19.541Z,15.48
2022-10-24T05:32:46.710Z,15.40
2022-10-24T05:35:13.927Z,15.40
2022-10-24T05:37:40.431Z,15.16
2022-10-24T05:40:08.911Z,15.32
2022-10-24T05:42:35.456Z,15.18
2022-10-24T05:45:01.943Z,15.35
2022-10-24T05:47:29.268Z,15.27
2022-10-24T05:49:55.890Z,15.17
2022-10-24T05:52:22.342Z,15.07
2022-10-24T05:54:55.613Z,14.96
2022-10-24T05:57:32.887Z,14.81
2022-10-24T05:59:59.345Z,14.85
2022-10-24T06:02:25.893Z,14.97
2022-10-24T06:04:52.436Z,15.05
2022-10-24T06:07:18.914Z,15.16
2022-10-24T06:09:46.268Z,15.20
2022-10-24T06:12:13.381Z,15.12
2022-10-24T06:14:40.360Z,15.36
2022-10-24T06:17:07.659Z,15.27
2022-10-24T06:19:34.310Z,15.34
2022-10-24T06:22:00.836Z,15.24
2022-10-24T06:24:27.357Z,15.30
2022-10-24T06:26:54.320Z,15.21
2022-10-24T06:29:20.909Z,15.15
2022-10-24T06:31:47.570Z,14.82
2022-10-24T06:34:14.056Z,14.83
2022-10-24T06:39:12.054Z,14.91
2022-10-24T06:41:38.703Z,14.78
2022-10-24T06:44:08.883Z,14.70
2022-10-24T06:46:37.698Z,14.74
2022-10-24T06:49:04.538Z,14.57
2022-10-24T06:51:30.992Z,14.67
2022-10-24T06:54:00.237Z,14.71
2022-10-24T06:56:26.948Z,14.85
2022-10-24T06:58:53.489Z,15.04
2022-10-24T07:01:21.864Z,15.12
2022-10-24T07:03:49.032Z,15.36
2022-10-24T07:08:51.089Z,15.70
2022-10-24T07:11:17.692Z,15.87
2022-10-24T07:13:45.303Z,15.91
2022-10-24T07:16:11.956Z,15.51
2022-10-24T07:18:38.590Z,15.51
2022-10-24T07:21:07.768Z,15.44
2022-10-24T07:23:34.705Z,15.44
2022-10-24T07:26:05.847Z,15.68
2022-10-24T07:28:33.182Z,15.91
2022-10-24T07:31:03.290Z,16.04
2022-10-24T07:33:30.326Z,16.20
2022-10-24T07:35:56.967Z,16.12
2022-10-24T07:38:23.495Z,15.95
2022-10-24T07:40:51.000Z,16.08
2022-10-24T07:43:18.319Z,16.26
2022-10-24T07:45:49.115Z,16.25
2022-10-24T07:48:19.053Z,16.39
2022-10-24T07:50:47.024Z,16.61
2022-10-24T07:53:16.215Z,16.81
2022-10-24T07:55:43.953Z,16.84
2022-10-24T07:58:11.410Z,16.71
2022-10-24T08:00:44.850Z,16.65
2022-10-24T08:03:11.830Z,16.70
2022-10-24T08:05:41.650Z,16.88
2022-10-24T08:10:54.874Z,17.25
2022-10-24T08:13:21.403Z,17.28
2022-10-24T08:15:47.849Z,17.14
2022-10-24T08:18:14.538Z,16.82
2022-10-24T08:20:41.214Z,16.36
2022-10-24T08:23:08.020Z,16.30
2022-10-24T08:25:34.552Z,16.27
2022-10-24T08:28:03.906Z,16.05
2022-10-24T08:30:33.136Z,15.74
2022-10-24T08:32:59.590Z,15.85
2022-10-24T08:35:26.138Z,15.91
2022-10-24T08:37:52.627Z,15.88
2022-10-24T08:40:19.779Z,15.80
2022-10-24T08:42:47.788Z,15.65
2022-10-24T08:45:39.217Z,15.31
2022-10-24T08:48:09.305Z,15.22
2022-10-24T08:50:36.161Z,15.15
2022-10-24T08:53:07.088Z,15.23
2022-10-24T08:55:54.497Z,15.53
2022-10-24T08:58:31.048Z,15.66
2022-10-24T09:01:01.106Z,15.73
2022-10-24T09:03:57.510Z,16.07
2022-10-24T09:06:26.598Z,16.10
2022-10-24T09:08:56.696Z,16.16
2022-10-24T09:11:28.682Z,16.16
2022-10-24T09:13:55.376Z,16.04
2022-10-24T09:16:23.264Z,16.02
2022-10-24T09:18:53.194Z,15.88
2022-10-24T09:21:19.589Z,15.88
2022-10-24T09:23:46.307Z,15.86
2022-10-24T09:26:22.950Z,15.74
2022-10-24T09:28:49.488Z,15.57
2022-10-24T09:31:18.373Z,15.46
2022-10-24T09:33:46.384Z,15.21
2022-10-24T09:36:14.609Z,15.25
2022-10-24T09:38:42.450Z,15.03
2022-10-24T09:41:26.681Z,15.03
2022-10-24T09:43:55.819Z,14.98
2022-10-24T09:46:43.117Z,14.98
2022-10-24T09:49:12.516Z,14.85
2022-10-24T09:51:40.157Z,14.68
2022-10-24T09:54:06.575Z,14.43
2022-10-24T09:56:41.341Z,14.21
2022-10-24T09:59:39.990Z,13.99
2022-10-24T10:02:25.080Z,13.57
2022-10-24T10:05:06.555Z,13.26
2022-10-24T10:07:35.720Z,13.23
2022-10-24T10:10:08.288Z,13.24
2022-10-24T10:12:38.062Z,13.29
2022-10-24T10:15:34.447Z,13.55
2022-10-24T10:18:05.411Z,13.77
2022-10-24T10:20:40.687Z,13.74
2022-10-24T10:23:29.807Z,14.03
2022-10-24T10:26:17.811Z,14.11
2022-10-24T10:28:55.263Z,14.23
2022-10-24T10:31:34.003Z,14.41
2022-10-24T10:34:07.377Z,14.49
2022-10-24T10:36:58.210Z,14.68
2022-10-24T10:39:36.160Z,14.30
2022-10-24T10:42:38.881Z,14.19
2022-10-24T10:45:41.370Z,14.17
2022-10-24T10:48:07.807Z,14.31
2022-10-24T10:50:38.785Z,14.33
2022-10-24T10:53:37.322Z,14.24
2022-10-24T10:56:21.259Z,13.99
2022-10-24T10:59:07.367Z,13.94
2022-10-24T11:01:52.759Z,13.85
2022-10-24T11:04:37.491Z,13.68
2022-10-24T11:07:03.924Z,14.00
2022-10-24T11:09:43.503Z,14.18
2022-10-24T11:12:31.281Z,14.40
2022-10-24T11:15:04.470Z,14.49
2022-10-24T11:17:45.705Z,14.58
2022-10-24T11:20:21.277Z,14.98
2022-10-24T11:22:55.633Z,15.05
2022-10-24T11:25:29.394Z,14.93
2022-10-24T11:28:06.252Z,15.01
2022-10-24T11:30:42.517Z,15.16
2022-10-24T11:33:14.956Z,15.19
2022-10-24T11:35:55.972Z,15.02
2022-10-24T11:38:24.306Z,14.91
2022-10-24T11:40:58.675Z,14.72
2022-10-24T11:43:38.132Z,14.70
2022-10-24T11:46:15.950Z,14.66
2022-10-24T11:48:53.766Z,14.63
2022-10-24T11:51:24.911Z,14.66
2022-10-24T11:53:59.982Z,14.48
2022-10-24T11:56:44.571Z,14.38
2022-10-24T11:59:22.284Z,14.30
2022-10-24T12:01:55.035Z,14.18
2022-10-24T12:04:26.754Z,14.17
2022-10-24T12:06:56.190Z,14.07
2022-10-24T12:09:34.334Z,14.21
2022-10-24T12:12:31.603Z,14.18
2022-10-24T12:15:39.011Z,14.13
2022-10-24T12:18:26.215Z,14.06
2022-10-24T12:20:58.519Z,14.05
2022-10-24T12:23:26.419Z,13.81
2022-10-24T12:26:08.364Z,13.99
2022-10-24T12:28:36.597Z,14.11
2022-10-24T12:31:12.099Z,14.14
2022-10-24T12:33:38.634Z,14.17
2022-10-24T12:36:05.469Z,14.04
2022-10-24T12:38:31.825Z,14.09
2022-10-24T12:41:06.521Z,13.96
2022-10-24T12:43:41.049Z,14.20
2022-10-24T12:46:22.531Z,14.37
2022-10-24T12:48:58.711Z,14.52
2022-10-24T12:51:35.194Z,14.35
2022-10-24T12:54:13.931Z,14.38
2022-10-24T12:56:49.431Z,14.29
2022-10-24T12:59:26.370Z,14.06
2022-10-24T13:02:12.958Z,14.09
2022-10-24T13:05:08.519Z,14.18
2022-10-24T13:08:08.958Z,14.42
2022-10-24T13:10:56.786Z,14.26
2022-10-24T13:13:38.934Z,14.59
2022-10-24T13:16:20.624Z,14.70
2022-10-24T13:18:52.991Z,14.42
2022-10-24T13:21:46.898Z,14.15
2022-10-24T13:24:16.895Z,13.88
2022-10-24T13:26:55.400Z,13.88
2022-10-24T13:29:27.890Z,13.94
2022-10-24T13:32:16.321Z,13.63
2022-10-24T13:34:52.575Z,13.49
2022-10-24T13:37:24.079Z,13.47
2022-10-24T13:39:53.095Z,13.65
2022-10-24T13:42:27.178Z,13.69
2022-10-24T13:45:03.455Z,13.71
2022-10-24T13:47:52.088Z,13.75
2022-10-24T13:50:25.014Z,13.63
2022-10-24T13:52:53.705Z,13.62
2022-10-24T13:55:32.854Z,13.55
2022-10-24T13:58:05.409Z,13.66
2022-10-24T14:00:34.703Z,13.89
2022-10-24T14:03:03.599Z,14.20
2022-10-24T14:05:40.108Z,14.31
2022-10-24T14:08:08.066Z,14.38
2022-10-24T14:10:34.678Z,14.51
2022-10-24T14:13:01.397Z,14.64
2022-10-24T14:15:30.857Z,14.57
2022-10-24T14:18:13.207Z,14.76
2022-10-24T14:20:40.289Z,14.93
2022-10-24T14:23:24.951Z,15.09
2022-10-24T14:25:57.305Z,15.20
2022-10-24T14:28:27.754Z,15.02
2022-10-24T14:31:02.807Z,14.71
2022-10-24T14:33:31.064Z,14.68
2022-10-24T14:35:59.852Z,14.51
2022-10-24T14:38:27.888Z,14.52
2022-10-24T14:41:07.847Z,14.45
2022-10-24T14:43:35.693Z,14.33
2022-10-24T14:46:14.436Z,14.64
2022-10-24T14:48:46.402Z,14.71
2022-10-24T14:51:15.907Z,15.00
2022-10-24T14:53:43.131Z,15.21
2022-10-24T14:56:29.152Z,15.21
2022-10-24T14:58:56.999Z,15.36
2022-10-24T15:01:24.499Z,15.33
2022-10-24T15:04:26.657Z,15.49
2022-10-24T15:06:55.960Z,15.46
2022-10-24T15:09:23.081Z,15.37
2022-10-24T15:12:02.479Z,15.12
2022-10-24T15:14:40.867Z,15.01
2022-10-24T15:17:32.961Z,14.84
2022-10-24T15:20:01.786Z,14.87
2022-10-24T15:22:31.663Z,14.99
2022-10-24T15:25:00.725Z,15.05
2022-10-24T15:27:31.044Z,15.08
2022-10-24T15:29:57.608Z,14.92
2022-10-24T15:32:24.246Z,14.79
2022-10-24T15:34:54.016Z,14.86
2022-10-24T15:37:22.920Z,14.83
2022-10-24T15:39:49.914Z,14.38
2022-10-24T15:42:21.541Z,14.13
2022-10-24T15:44:49.114Z,14.04
2022-10-24T15:47:15.711Z,14.03
2022-10-24T15:49:42.194Z,14.21
2022-10-24T15:52:13.283Z,14.44
2022-10-24T15:54:39.889Z,14.37
2022-10-24T15:57:06.369Z,14.39
2022-10-24T15:59:32.865Z,14.43
2022-10-24T16:02:01.596Z,14.53
2022-10-24T16:04:28.572Z,14.44
2022-10-24T16:06:55.161Z,14.52
2022-10-24T16:09:24.659Z,14.45
2022-10-24T16:11:51.122Z,14.42
2022-10-24T16:14:19.431Z,14.37
2022-10-24T16:16:46.314Z,14.40
2022-10-24T16:19:13.370Z,14.55
2022-10-24T16:21:41.280Z,14.22
2022-10-24T16:24:08.895Z,14.17
2022-10-24T16:26:37.180Z,13.99
2022-10-24T16:29:04.272Z,13.76
2022-10-24T16:31:31.829Z,13.61
2022-10-24T16:33:58.841Z,13.44
2022-10-24T16:36:25.863Z,13.36
2022-10-24T16:38:52.743Z,13.19
2022-10-24T16:41:22.216Z,13.31
2022-10-24T16:43:49.899Z,13.18
2022-10-24T16:46:18.457Z,13.13
2022-10-24T16:48:45.316Z,13.15
2022-10-24T16:51:20.049Z,12.91
2022-10-24T16:53:46.537Z,12.73
2022-10-24T16:56:14.793Z,12.88
2022-10-24T16:58:41.893Z,12.83
2022-10-24T17:01:10.887Z,12.83
2022-10-24T17:03:37.794Z,12.74
2022-10-24T17:06:05.076Z,12.82
2022-10-24T17:08:32.200Z,12.82
2022-10-24T17:10:58.781Z,12.93
2022-10-24T17:13:25.299Z,13.03
2022-10-24T17:15:51.853Z,12.83
2022-10-24T17:18:18.380Z,12.92
2022-10-24T17:20:45.847Z,12.88
2022-10-24T17:23:14.576Z,12.94
2022-10-24T17:25:41.761Z,13.06
2022-10-24T17:28:08.798Z,13.08
2022-10-24T17:30:35.415Z,13.06
2022-10-24T17:33:01.942Z,13.15
2022-10-24T17:35:28.803Z,13.17
2022-10-24T17:38:07.456Z,13.20
2022-10-24T17:40:44.145Z,13.11
2022-10-24T17:43:18.403Z,13.27
2022-10-24T17:45:45.120Z,13.24
2022-10-24T17:48:11.695Z,13.17
2022-10-24T17:50:38.322Z,13.27
2022-10-24T17:53:04.823Z,13.40
2022-10-24T17:55:45.817Z,13.24
2022-10-24T17:58:14.107Z,13.32
2022-10-24T18:00:40.674Z,13.26
2022-10-24T18:03:07.330Z,13.02
2022-10-24T18:05:33.959Z,12.99
2022-10-24T18:08:00.450Z,12.86
2022-10-24T18:10:26.920Z,13.02
2022-10-24T18:12:53.416Z,12.86
2022-10-24T18:15:20.239Z,12.69
2022-10-24T18:17:47.610Z,12.50
2022-10-24T18:20:15.623Z,12.53
2022-10-24T18:22:43.422Z,12.72
2022-10-24T18:25:10.993Z,12.85
2022-10-24T18:27:37.699Z,12.83
2022-10-24T18:30:05.807Z,12.91
2022-10-24T18:32:32.984Z,12.93
2022-10-24T18:34:59.514Z,12.94
2022-10-24T18:37:26.255Z,12.68
2022-10-24T18:39:53.245Z,12.59
2022-10-24T18:42:38.381Z,12.55
2022-10-24T18:45:05.720Z,12.57
2022-10-24T18:47:33.801Z,12.64
2022-10-24T18:50:00.503Z,12.71
2022-10-24T18:52:42.270Z,12.69
2022-10-24T18:55:16.554Z,12.66
2022-10-24T18:57:43.325Z,12.64
2022-10-24T19:00:13.463Z,12.63
2022-10-24T19:02:49.371Z,12.76
2022-10-24T19:05:30.359Z,12.66
2022-10-24T19:07:56.870Z,12.79
2022-10-24T19:10:25.827Z,12.72
2022-10-24T19:12:53.042Z,12.69
2022-10-24T19:15:20.083Z,12.67
2022-10-24T19:17:47.514Z,12.69
2022-10-24T19:20:22.614Z,12.65
2022-10-24T19:22:49.635Z,12.69
2022-10-24T19:25:16.801Z,12.65
2022-10-24T19:27:43.737Z,12.58
2022-10-24T19:30:11.616Z,12.51
2022-10-24T19:32:38.326Z,12.63
2022-10-24T19:35:05.111Z,12.62
2022-10-24T19:37:31.631Z,12.75
2022-10-24T19:39:58.100Z,12.87
2022-10-24T19:42:24.603Z,12.83
2022-10-24T19:44:51.173Z,12.92
2022-10-24T19:47:17.682Z,13.07
2022-10-24T19:49:44.190Z,13.00
2022-10-24T19:52:10.678Z,13.10
2022-10-24T19:54:37.202Z,13.16
2022-10-24T19:57:03.828Z,13.22
2022-10-24T19:59:30.661Z,13.14
2022-10-24T20:04:24.760Z,13.15
2022-10-24T20:06:51.290Z,13.05
2022-10-24T20:09:17.806Z,13.11
2022-10-24T20:11:47.366Z,13.17
2022-10-24T20:14:13.968Z,13.05
2022-10-24T20:16:40.417Z,13.03
2022-10-24T20:19:07.202Z,12.84
2022-10-24T20:21:34.124Z,12.83
2022-10-24T20:24:01.076Z,12.94
2022-10-24T20:26:27.574Z,12.79
2022-10-24T20:28:55.307Z,12.86
2022-10-24T20:31:27.229Z,12.94
2022-10-24T20:33:56.941Z,12.86
2022-10-24T20:36:27.377Z,12.87
2022-10-24T20:38:53.861Z,12.81
2022-10-24T20:41:20.331Z,12.90
2022-10-24T20:43:47.015Z,12.95
2022-10-24T20:46:13.548Z,12.99
2022-10-24T20:48:40.059Z,13.08
2022-10-24T20:51:09.446Z,13.13
2022-10-24T20:53:36.338Z,13.19
2022-10-24T20:56:04.876Z,13.34
2022-10-24T20:58:31.380Z,13.28
2022-10-24T21:00:57.926Z,13.12
2022-10-24T21:03:24.510Z,13.20
2022-10-24T21:05:50.996Z,13.22
2022-10-24T21:08:17.836Z,13.07
2022-10-24T21:10:44.336Z,13.07
2022-10-24T21:13:10.832Z,13.12
2022-10-24T21:15:37.291Z,13.22
2022-10-24T21:18:03.936Z,13.18
2022-10-24T21:20:30.630Z,13.26
2022-10-24T21:22:57.104Z,13.36
2022-10-24T21:25:23.584Z,13.45
2022-10-24T21:27:50.252Z,13.44
2022-10-24T21:30:16.760Z,13.57
2022-10-24T21:32:45.454Z,13.59
2022-10-24T21:35:11.922Z,13.63
2022-10-24T21:37:38.385Z,13.63
2022-10-24T21:40:05.306Z,13.57
2022-10-24T21:42:31.971Z,13.57
2022-10-24T21:44:58.546Z,13.65
2022-10-24T21:47:25.106Z,13.71
2022-10-24T21:49:51.627Z,13.67
2022-10-24T21:52:20.915Z,13.75
2022-10-24T21:54:48.901Z,13.76
2022-10-24T21:57:15.537Z,13.70
2022-10-24T21:59:42.144Z,13.69
2022-10-24T22:02:08.863Z,13.80
2022-10-24T22:04:35.548Z,13.85
2022-10-24T22:07:02.063Z,13.84
2022-10-24T22:09:28.525Z,13.69
2022-10-24T22:11:55.261Z,13.31
2022-10-24T22:14:21.811Z,13.32
2022-10-24T22:16:48.279Z,13.30
2022-10-24T22:19:14.756Z,13.40
2022-10-24T22:21:46.243Z,13.26
2022-10-24T22:24:20.680Z,13.26
2022-10-24T22:26:47.582Z,13.40
2022-10-24T22:29:17.095Z,13.45
2022-10-24T22:31:44.288Z,13.43
2022-10-24T22:34:19.751Z,13.60
2022-10-24T22:37:07.271Z,13.72
2022-10-24T22:39:34.169Z,13.73
2022-10-24T22:42:00.893Z,13.68
2022-10-24T22:44:27.537Z,13.68
2022-10-24T22:47:11.872Z,13.51
2022-10-24T22:49:44.229Z,13.43
2022-10-24T22:52:11.369Z,13.21
2022-10-24T22:54:38.814Z,13.36
2022-10-24T22:57:05.937Z,13.37
2022-10-24T22:59:33.376Z,13.23
2022-10-24T23:02:05.403Z,13.32
2022-10-24T23:04:55.732Z,13.25
2022-10-24T23:07:27.642Z,13.09
2022-10-24T23:09:54.871Z,13.14
2022-10-24T23:12:22.274Z,13.07
2022-10-24T23:14:49.349Z,13.07
2022-10-24T23:17:27.680Z,13.31
2022-10-24T23:19:55.288Z,13.45
2022-10-24T23:22:27.564Z,13.45
2022-10-24T23:24:59.008Z,13.52
2022-10-24T23:27:35.970Z,13.63
2022-10-24T23:30:17.054Z,13.42
2022-10-24T23:32:44.104Z,13.58
2022-10-24T23:35:13.467Z,13.75
2022-10-24T23:37:45.319Z,14.04
2022-10-24T23:40:17.778Z,14.08
2022-10-24T23:42:45.282Z,14.15
2022-10-24T23:45:13.717Z,14.14
2022-10-24T23:48:01.727Z,14.23
2022-10-24T23:50:34.716Z,14.14
2022-10-24T23:53:23.705Z,14.23
2022-10-24T23:55:50.478Z,14.19
2022-10-24T23:58:17.126Z,14.37
